createdAt,value
2023-11-02T00:00:30.865Z,25.00
2023-11-02T00:04:18.412Z,27.30
2023-11-02T00:10:44.768Z,32.00
2023-11-02T00:14:14.393Z,31.10
2023-11-02T00:17:54.900Z,34.30
2023-11-02T00:21:31.792Z,32.30
2023-11-02T00:25:04.320Z,31.30
2023-11-02T00:28:33.117Z,34.90
2023-11-02T00:32:00.750Z,32.20
2023-11-02T00:35:28.540Z,32.10
2023-11-02T00:38:59.230Z,27.30
2023-11-02T00:45:55.263Z,33.60
2023-11-02T00:49:25.937Z,29.80
2023-11-02T00:52:54.433Z,26.50
2023-11-02T00:56:24.024Z,32.00
2023-11-02T00:59:53.475Z,32.40
2023-11-02T01:03:21.559Z,28.20
2023-11-02T01:06:52.459Z,27.10
2023-11-02T01:10:23.431Z,31.20
2023-11-02T01:13:50.886Z,28.00
2023-11-02T01:17:31.998Z,23.70
2023-11-02T01:21:05.119Z,25.30
2023-11-02T01:24:35.250Z,27.00
2023-11-02T01:28:08.139Z,29.70
2023-11-02T01:31:38.231Z,30.50
2023-11-02T01:35:33.586Z,30.60
2023-11-02T01:39:12.856Z,28.30
2023-11-02T01:42:49.055Z,38.70
2023-11-02T01:46:26.451Z,29.40
2023-11-02T01:50:06.297Z,37.30
2023-11-02T01:53:47.281Z,36.40
2023-11-02T01:57:20.705Z,31.20
2023-11-02T02:00:59.476Z,29.70
2023-11-02T02:04:39.251Z,27.70
2023-11-02T02:08:19.150Z,34.50
2023-11-02T02:12:00.321Z,27.80
2023-11-02T02:15:44.212Z,28.90
2023-11-02T02:19:27.064Z,28.10
2023-11-02T02:23:04.507Z,29.40
2023-11-02T02:26:59.161Z,30.50
2023-11-02T02:31:01.626Z,24.80
2023-11-02T02:34:57.438Z,23.90
2023-11-02T02:38:35.125Z,20.20
2023-11-02T02:42:05.873Z,34.10
2023-11-02T02:45:37.160Z,25.70
2023-11-02T02:49:07.377Z,22.20
2023-11-02T02:52:37.380Z,20.90
2023-11-02T02:56:11.781Z,22.30
2023-11-02T02:59:42.079Z,23.70
2023-11-02T03:03:12.340Z,24.10
2023-11-02T03:10:14.398Z,24.00
2023-11-02T03:13:46.320Z,20.00
2023-11-02T03:17:24.165Z,26.90
2023-11-02T03:20:52.273Z,20.10
2023-11-02T03:24:31.427Z,18.70
2023-11-02T03:28:15.185Z,20.60
2023-11-02T03:31:55.380Z,20.10
2023-11-02T03:35:31.196Z,17.30
2023-11-02T03:39:16.079Z,19.10
2023-11-02T03:42:51.848Z,16.70
2023-11-02T03:46:30.004Z,21.00
2023-11-02T03:50:10.604Z,18.30
2023-11-02T03:53:48.851Z,20.10
2023-11-02T03:57:26.465Z,17.00
2023-11-02T04:01:04.253Z,19.30
2023-11-02T04:04:41.749Z,16.30
2023-11-02T04:08:19.587Z,14.80
2023-11-02T04:12:01.550Z,16.00
2023-11-02T04:15:29.661Z,15.10
2023-11-02T04:18:57.628Z,14.60
2023-11-02T04:22:25.642Z,15.00
2023-11-02T04:25:56.908Z,20.30
2023-11-02T04:29:24.723Z,23.00
2023-11-02T04:32:52.040Z,20.70
2023-11-02T04:36:19.877Z,16.80
2023-11-02T04:39:47.992Z,20.00
2023-11-02T04:43:16.034Z,19.90
2023-11-02T04:46:46.959Z,22.90
2023-11-02T04:50:17.841Z,18.10
2023-11-02T04:53:48.454Z,18.40
2023-11-02T04:57:16.226Z,17.00
2023-11-02T05:00:44.538Z,17.40
2023-11-02T05:04:13.957Z,15.30
2023-11-02T05:07:43.056Z,15.90
2023-11-02T05:14:38.379Z,17.00
2023-11-02T05:18:07.832Z,16.90
2023-11-02T05:21:36.510Z,17.80
2023-11-02T05:25:05.172Z,18.40
2023-11-02T05:28:32.988Z,24.10
2023-11-02T05:32:01.030Z,31.10
2023-11-02T05:35:29.544Z,22.30
2023-11-02T05:38:56.858Z,21.50
2023-11-02T05:42:24.651Z,23.20
2023-11-02T05:45:52.868Z,22.00
2023-11-02T05:49:20.189Z,22.60
2023-11-02T05:52:48.202Z,30.10
2023-11-02T05:56:16.880Z,32.40
2023-11-02T05:59:43.902Z,27.10
2023-11-02T06:03:12.287Z,25.70
2023-11-02T06:06:41.197Z,22.50
2023-11-02T06:10:09.972Z,21.40
2023-11-02T06:13:36.996Z,24.00
2023-11-02T06:17:04.243Z,23.70
2023-11-02T06:20:31.422Z,27.70
2023-11-02T06:23:58.425Z,23.90
2023-11-02T06:27:25.500Z,26.20
2023-11-02T06:30:53.056Z,23.30
2023-11-02T06:34:21.323Z,25.70
2023-11-02T06:38:02.107Z,27.10
2023-11-02T06:41:29.356Z,25.60
2023-11-02T06:44:56.280Z,23.20
2023-11-02T06:48:23.497Z,19.80
2023-11-02T06:51:50.585Z,15.10
2023-11-02T06:55:17.620Z,16.70
2023-11-02T06:58:44.883Z,25.30
2023-11-02T07:02:12.865Z,19.80
2023-11-02T07:05:40.316Z,16.30
2023-11-02T07:09:08.016Z,15.30
2023-11-02T07:12:35.757Z,21.30
2023-11-02T07:16:04.115Z,15.40
2023-11-02T07:19:31.112Z,15.70
2023-11-02T07:22:58.285Z,16.30
2023-11-02T07:26:25.358Z,16.90
2023-11-02T07:29:52.714Z,15.30
2023-11-02T07:33:19.829Z,14.50
2023-11-02T07:36:47.131Z,17.90
2023-11-02T07:40:15.171Z,12.70
2023-11-02T07:43:42.313Z,13.50
2023-11-02T07:47:09.423Z,16.20
2023-11-02T07:50:36.419Z,14.10
2023-11-02T07:54:04.997Z,16.50
2023-11-02T07:57:31.981Z,18.00
2023-11-02T08:00:59.006Z,15.80
2023-11-02T08:04:26.155Z,18.80
2023-11-02T08:07:53.507Z,23.80
2023-11-02T08:11:20.497Z,14.90
2023-11-02T08:14:47.443Z,13.00
2023-11-02T08:18:14.473Z,13.40
2023-11-02T08:21:41.752Z,14.60
2023-11-02T08:25:10.719Z,14.80
2023-11-02T08:28:37.887Z,12.50
2023-11-02T08:32:05.088Z,13.20
2023-11-02T08:35:32.123Z,12.10
2023-11-02T08:38:59.047Z,13.70
2023-11-02T08:42:30.059Z,13.30
2023-11-02T08:45:57.028Z,14.00
2023-11-02T08:49:24.455Z,14.50
2023-11-02T08:52:51.746Z,11.20
2023-11-02T08:56:18.999Z,8.90
2023-11-02T08:59:46.779Z,11.30
2023-11-02T09:03:13.866Z,16.30
2023-11-02T09:06:41.800Z,12.30
2023-11-02T09:10:10.797Z,12.50
2023-11-02T09:13:38.382Z,10.80
2023-11-02T09:17:05.943Z,13.80
2023-11-02T09:20:33.013Z,11.30
2023-11-02T09:24:00.563Z,9.60
2023-11-02T09:27:27.627Z,7.20
2023-11-02T09:30:55.114Z,5.90
2023-11-02T09:34:22.198Z,9.30
2023-11-02T09:37:51.042Z,9.00
2023-11-02T09:41:18.206Z,8.60
2023-11-02T09:44:45.535Z,11.30
2023-11-02T09:48:13.604Z,8.30
2023-11-02T09:51:41.379Z,10.80
2023-11-02T09:55:09.468Z,13.30
2023-11-02T09:58:37.961Z,9.50
2023-11-02T10:02:05.345Z,8.00
2023-11-02T10:05:33.665Z,10.00
2023-11-02T10:09:00.827Z,10.60
2023-11-02T10:12:28.201Z,12.20
2023-11-02T10:15:56.003Z,11.00
2023-11-02T10:19:23.327Z,8.30
2023-11-02T10:23:02.263Z,8.40
2023-11-02T10:26:30.668Z,11.30
2023-11-02T10:29:57.892Z,8.40
2023-11-02T10:33:31.504Z,11.20
2023-11-02T10:36:59.279Z,13.50
2023-11-02T10:40:26.293Z,7.80
2023-11-02T10:43:54.941Z,9.70
2023-11-02T10:47:25.169Z,10.90
2023-11-02T10:50:57.820Z,7.20
2023-11-02T10:54:39.578Z,7.40
2023-11-02T10:58:09.478Z,8.20
2023-11-02T11:01:38.340Z,6.40
2023-11-02T11:05:07.591Z,9.00
2023-11-02T11:08:36.480Z,8.10
2023-11-02T11:12:04.299Z,8.00
2023-11-02T11:15:31.786Z,10.50
2023-11-02T11:18:59.077Z,9.00
2023-11-02T11:22:31.452Z,6.20
2023-11-02T11:26:03.066Z,9.60
2023-11-02T11:29:37.549Z,11.30
2023-11-02T11:33:04.963Z,8.00
2023-11-02T11:36:33.799Z,8.80
2023-11-02T11:40:01.027Z,9.30
2023-11-02T11:43:28.443Z,7.30
2023-11-02T11:46:57.315Z,12.20
2023-11-02T11:50:35.438Z,8.50
2023-11-02T11:54:14.612Z,10.60
2023-11-02T11:58:00.674Z,8.20
2023-11-02T12:01:28.023Z,7.40
2023-11-02T12:04:59.002Z,7.30
2023-11-02T12:08:26.991Z,7.00
2023-11-02T12:11:53.916Z,7.70
2023-11-02T12:15:22.733Z,8.60
2023-11-02T12:18:53.364Z,11.20
2023-11-02T12:22:20.835Z,7.60
2023-11-02T12:25:52.014Z,8.20
2023-11-02T12:29:19.142Z,7.40
2023-11-02T12:32:46.130Z,10.60
2023-11-02T12:36:14.406Z,11.20
2023-11-02T12:39:41.628Z,11.90
2023-11-02T12:43:09.732Z,8.90
2023-11-02T12:46:38.727Z,6.60
2023-11-02T12:50:06.343Z,7.00
2023-11-02T12:53:36.833Z,9.00
2023-11-02T12:57:06.710Z,10.10
2023-11-02T13:04:05.904Z,5.30
2023-11-02T13:07:37.472Z,6.30
2023-11-02T13:11:08.501Z,8.70
2023-11-02T13:14:35.656Z,7.40
2023-11-02T13:18:02.876Z,10.30
2023-11-02T13:21:30.732Z,8.30
2023-11-02T13:24:59.196Z,12.10
2023-11-02T13:28:26.469Z,8.40
2023-11-02T13:31:53.546Z,15.30
2023-11-02T13:35:20.449Z,7.10
2023-11-02T13:38:48.927Z,7.60
2023-11-02T13:42:17.109Z,8.10
2023-11-02T13:45:44.569Z,6.30
2023-11-02T13:49:12.280Z,7.90
2023-11-02T13:52:39.599Z,8.40
2023-11-02T13:56:12.125Z,9.50
2023-11-02T13:59:39.382Z,14.10
2023-11-02T14:03:06.896Z,10.50
2023-11-02T14:06:35.365Z,7.00
2023-11-02T14:10:02.930Z,11.80
2023-11-02T14:13:32.495Z,7.50
2023-11-02T14:16:59.966Z,10.70
2023-11-02T14:20:27.701Z,11.80
2023-11-02T14:23:54.667Z,9.70
2023-11-02T14:27:23.891Z,11.90
2023-11-02T14:30:51.810Z,11.60
2023-11-02T14:34:18.805Z,9.10
2023-11-02T14:37:46.199Z,8.20
2023-11-02T14:41:13.441Z,14.90
2023-11-02T14:44:41.448Z,12.90
2023-11-02T14:48:10.845Z,10.80
2023-11-02T14:51:38.107Z,10.30
2023-11-02T14:55:06.044Z,12.90
2023-11-02T14:58:33.236Z,19.50
2023-11-02T15:02:01.407Z,96.30
2023-11-02T15:05:28.393Z,31.90
2023-11-02T15:09:01.629Z,71.90
2023-11-02T15:12:35.327Z,73.10
2023-11-02T15:16:02.681Z,54.10
2023-11-02T15:19:31.477Z,85.20
2023-11-02T15:22:59.789Z,113.00
2023-11-02T15:26:26.995Z,86.90
2023-11-02T15:29:54.193Z,81.10
2023-11-02T15:33:21.148Z,62.10
2023-11-02T15:36:48.230Z,43.10
2023-11-02T15:40:16.814Z,22.10
2023-11-02T15:43:43.881Z,13.70
2023-11-02T15:47:13.741Z,13.10
2023-11-02T15:50:40.916Z,16.70
2023-11-02T15:54:08.552Z,17.90
2023-11-02T15:57:36.263Z,20.70
2023-11-02T16:01:04.062Z,19.60
2023-11-02T16:04:31.646Z,22.40
2023-11-02T16:07:59.181Z,24.40
2023-11-02T16:11:26.466Z,20.40
2023-11-02T16:14:54.806Z,20.70
2023-11-02T16:18:22.982Z,24.40
2023-11-02T16:21:50.133Z,25.40
2023-11-02T16:25:19.838Z,23.90
2023-11-02T16:28:47.294Z,24.40
2023-11-02T16:32:14.851Z,20.10
2023-11-02T16:35:42.657Z,19.80
2023-11-02T16:39:13.007Z,26.10
2023-11-02T16:42:41.508Z,25.90
2023-11-02T16:46:14.214Z,23.00
2023-11-02T16:49:42.619Z,19.40
2023-11-02T16:53:09.503Z,20.60
2023-11-02T16:56:36.603Z,26.80
2023-11-02T17:00:04.845Z,33.80
2023-11-02T17:03:41.998Z,32.80
2023-11-02T17:07:09.062Z,31.40
2023-11-02T17:10:36.293Z,23.50
2023-11-02T17:14:03.515Z,25.60
2023-11-02T17:17:30.696Z,25.40
2023-11-02T17:20:58.086Z,26.00
2023-11-02T17:24:25.548Z,33.70
2023-11-02T17:27:54.857Z,28.00
2023-11-02T17:31:22.286Z,30.50
2023-11-02T17:34:49.744Z,22.40
2023-11-02T17:38:16.925Z,27.90
2023-11-02T17:41:44.487Z,28.70
2023-11-02T17:45:12.908Z,28.10
2023-11-02T17:48:40.800Z,27.60
2023-11-02T17:52:08.981Z,25.80
2023-11-02T17:55:36.007Z,26.60
2023-11-02T17:59:03.362Z,25.80
2023-11-02T18:02:30.797Z,26.20
2023-11-02T18:05:58.023Z,30.10
2023-11-02T18:09:25.755Z,27.90
2023-11-02T18:12:52.765Z,34.30
2023-11-02T18:16:20.096Z,32.30
2023-11-02T18:19:47.594Z,37.50
2023-11-02T18:23:15.072Z,38.70
2023-11-02T18:26:42.478Z,37.50
2023-11-02T18:30:14.830Z,33.80
2023-11-02T18:33:42.082Z,32.30
2023-11-02T18:37:09.137Z,43.50
2023-11-02T18:40:36.170Z,38.50
2023-11-02T18:44:05.104Z,41.30
2023-11-02T18:47:34.370Z,36.10
2023-11-02T18:51:02.021Z,31.50
2023-11-02T18:54:29.557Z,33.60
2023-11-02T18:57:57.240Z,34.40
2023-11-02T19:01:24.516Z,35.70
2023-11-02T19:04:51.407Z,32.60
2023-11-02T19:08:19.776Z,33.40
2023-11-02T19:11:47.671Z,32.60
2023-11-02T19:15:15.290Z,37.70
2023-11-02T19:18:42.356Z,32.00
2023-11-02T19:22:09.632Z,35.00
2023-11-02T19:25:37.208Z,30.40
2023-11-02T19:29:05.074Z,31.70
2023-11-02T19:32:34.310Z,37.00
2023-11-02T19:36:03.451Z,28.00
2023-11-02T19:39:30.689Z,31.70
2023-11-02T19:42:58.229Z,31.60
2023-11-02T19:46:27.731Z,27.80
2023-11-02T19:49:54.795Z,33.40
2023-11-02T19:53:23.147Z,31.10
2023-11-02T19:56:50.575Z,36.70
2023-11-02T20:00:19.164Z,34.00
2023-11-02T20:03:46.274Z,33.30
2023-11-02T20:07:13.403Z,27.50
2023-11-02T20:10:40.560Z,26.50
2023-11-02T20:14:10.305Z,25.70
2023-11-02T20:17:38.131Z,24.10
2023-11-02T20:21:07.054Z,27.20
2023-11-02T20:24:34.102Z,28.50
2023-11-02T20:28:01.865Z,24.90
2023-11-02T20:31:29.175Z,25.40
2023-11-02T20:34:56.621Z,19.80
2023-11-02T20:38:23.741Z,21.50
2023-11-02T20:41:50.815Z,25.30
2023-11-02T20:45:18.641Z,29.20
2023-11-02T20:48:46.023Z,28.20
2023-11-02T20:52:13.030Z,27.30
2023-11-02T20:55:40.356Z,28.60
2023-11-02T20:59:07.672Z,26.60
2023-11-02T21:02:34.884Z,31.80
2023-11-02T21:06:07.236Z,34.00
2023-11-02T21:09:34.745Z,32.40
2023-11-02T21:13:03.700Z,31.90
2023-11-02T21:16:30.810Z,33.40
2023-11-02T21:19:58.046Z,29.30
2023-11-02T21:23:31.293Z,30.20
2023-11-02T21:26:58.500Z,26.90
2023-11-02T21:30:25.859Z,28.50
2023-11-02T21:33:53.334Z,28.60
2023-11-02T21:37:20.966Z,27.00
2023-11-02T21:40:47.864Z,29.90
2023-11-02T21:44:15.340Z,22.60
2023-11-02T21:47:42.672Z,24.20
2023-11-02T21:54:41.057Z,26.70
2023-11-02T21:58:08.529Z,26.10
2023-11-02T22:01:35.553Z,26.10
2023-11-02T22:05:03.578Z,25.20
2023-11-02T22:08:30.654Z,22.50
2023-11-02T22:11:57.512Z,22.70
2023-11-02T22:15:24.959Z,21.00
2023-11-02T22:18:53.033Z,30.20
2023-11-02T22:22:20.277Z,23.90
2023-11-02T22:25:47.882Z,23.00
2023-11-02T22:29:15.181Z,21.00
2023-11-02T22:32:42.916Z,20.10
2023-11-02T22:36:12.706Z,22.90
2023-11-02T22:39:40.003Z,20.40
2023-11-02T22:43:07.633Z,19.40
2023-11-02T22:46:34.737Z,23.10
2023-11-02T22:50:03.966Z,23.80
2023-11-02T22:56:57.381Z,23.30
2023-11-02T23:00:32.299Z,30.80
2023-11-02T23:04:01.996Z,29.50
2023-11-02T23:07:29.503Z,25.50
2023-11-02T23:10:56.622Z,25.90
2023-11-02T23:14:23.881Z,27.30
2023-11-02T23:17:51.246Z,30.30
2023-11-02T23:21:18.641Z,22.50
2023-11-02T23:24:48.988Z,26.70
2023-11-02T23:28:16.236Z,22.00
2023-11-02T23:31:43.236Z,27.50
2023-11-02T23:35:11.409Z,26.70
2023-11-02T23:38:38.582Z,24.40
2023-11-02T23:42:06.808Z,22.50
2023-11-02T23:45:37.301Z,27.00
2023-11-02T23:49:05.622Z,24.20
2023-11-02T23:52:38.645Z,20.00
2023-11-02T23:56:09.810Z,17.90
2023-11-02T23:59:41.686Z,20.90
